sensor_id;sensor_type;location;lat;lon;timestamp;pressure;altitude;pressure_sealevel;temperature;humidity
54453;BME280;40363;52.270;10.546;2023-02-13T00:00:47;78775.53;;;-147.06;100.00
54453;BME280;40363;52.270;10.546;2023-02-13T00:03:14;78783.75;;;-147.06;100.00
54453;BME280;40363;52.270;10.546;2023-02-13T00:05:40;78771.41;;;-147.06;100.00
54453;BME280;40363;52.270;10.546;2023-02-13T00:08:07;78777.56;;;-147.06;100.00
54453;BME280;40363;52.270;10.546;2023-02-13T00:10:33;78775.53;;;-147.06;100.00
54453;BME280;40363;52.270;10.546;2023-02-13T00:13:02;78779.63;;;-147.06;100.00
54453;BME280;40363;52.270;10.546;2023-02-13T00:15:28;78785.81;;;-147.06;100.00
54453;BME280;40363;52.270;10.546;2023-02-13T00:17:55;78783.75;;;-147.06;100.00
54453;BME280;40363;52.270;10.546;2023-02-13T00:20:22;78779.63;;;-147.06;100.00
54453;BME280;40363;52.270;10.546;2023-02-13T00:22:49;78783.75;;;-147.06;100.00
54453;BME280;40363;52.270;10.546;2023-02-13T00:25:15;78783.75;;;-147.06;100.00
54453;BME280;40363;52.270;10.546;2023-02-13T00:27:42;78785.81;;;-147.06;100.00
54453;BME280;40363;52.270;10.546;2023-02-13T00:30:11;78787.88;;;-147.06;100.00
54453;BME280;40363;52.270;10.546;2023-02-13T00:32:38;78783.75;;;-147.06;100.00
54453;BME280;40363;52.270;10.546;2023-02-13T00:35:05;78779.63;;;-147.06;100.00
54453;BME280;40363;52.270;10.546;2023-02-13T00:37:32;78773.47;;;-147.06;100.00
54453;BME280;40363;52.270;10.546;2023-02-13T00:39:58;78775.53;;;-147.06;100.00
54453;BME280;40363;52.270;10.546;2023-02-13T00:42:25;78783.75;;;-147.06;100.00
54453;BME280;40363;52.270;10.546;2023-02-13T00:44:52;78777.56;;;-147.06;100.00
54453;BME280;40363;52.270;10.546;2023-02-13T00:47:20;78773.47;;;-147.06;100.00
54453;BME280;40363;52.270;10.546;2023-02-13T00:49:47;78796.09;;;-147.06;100.00
54453;BME280;40363;52.270;10.546;2023-02-13T00:52:13;78796.09;;;-147.06;100.00
54453;BME280;40363;52.270;10.546;2023-02-13T00:54:40;78794.03;;;-147.06;100.00
54453;BME280;40363;52.270;10.546;2023-02-13T00:57:06;78787.88;;;-147.06;100.00
54453;BME280;40363;52.270;10.546;2023-02-13T00:59:33;78789.91;;;-147.06;100.00
54453;BME280;40363;52.270;10.546;2023-02-13T01:02:00;78779.63;;;-147.06;100.00
54453;BME280;40363;52.270;10.546;2023-02-13T01:04:27;78781.69;;;-147.06;100.00
54453;BME280;40363;52.270;10.546;2023-02-13T01:06:54;78783.75;;;-147.06;100.00
54453;BME280;40363;52.270;10.546;2023-02-13T01:09:21;78787.88;;;-147.06;100.00
54453;BME280;40363;52.270;10.546;2023-02-13T01:11:47;78796.09;;;-147.06;100.00
54453;BME280;40363;52.270;10.546;2023-02-13T01:14:14;78794.03;;;-147.06;100.00
54453;BME280;40363;52.270;10.546;2023-02-13T01:16:40;78791.97;;;-147.06;100.00
54453;BME280;40363;52.270;10.546;2023-02-13T01:19:07;78785.81;;;-147.06;100.00
54453;BME280;40363;52.270;10.546;2023-02-13T01:21:35;78804.31;;;-147.06;100.00
54453;BME280;40363;52.270;10.546;2023-02-13T01:24:03;78798.16;;;-147.06;100.00
54453;BME280;40363;52.270;10.546;2023-02-13T01:26:30;78800.19;;;-147.06;100.00
54453;BME280;40363;52.270;10.546;2023-02-13T01:28:56;78802.25;;;-147.06;100.00
54453;BME280;40363;52.270;10.546;2023-02-13T01:31:23;78808.44;;;-147.06;100.00
54453;BME280;40363;52.270;10.546;2023-02-13T01:33:50;78798.16;;;-147.06;100.00
54453;BME280;40363;52.270;10.546;2023-02-13T01:36:16;78796.09;;;-147.06;100.00
54453;BME280;40363;52.270;10.546;2023-02-13T01:38:44;78796.09;;;-147.06;100.00
54453;BME280;40363;52.270;10.546;2023-02-13T01:41:11;78798.16;;;-147.06;100.00
54453;BME280;40363;52.270;10.546;2023-02-13T01:43:49;78775.53;;;-147.06;100.00
54453;BME280;40363;52.270;10.546;2023-02-13T01:46:19;78781.69;;;-147.06;100.00
54453;BME280;40363;52.270;10.546;2023-02-13T01:48:47;78779.63;;;-147.06;100.00
54453;BME280;40363;52.270;10.546;2023-02-13T01:51:18;78775.53;;;-147.06;100.00
54453;BME280;40363;52.270;10.546;2023-02-13T01:53:49;78775.53;;;-147.06;100.00
54453;BME280;40363;52.270;10.546;2023-02-13T01:56:21;78779.63;;;-147.06;100.00
54453;BME280;40363;52.270;10.546;2023-02-13T01:58:53;78791.97;;;-147.06;100.00
54453;BME280;40363;52.270;10.546;2023-02-13T02:01:21;78794.03;;;-147.06;100.00
54453;BME280;40363;52.270;10.546;2023-02-13T02:03:52;78796.09;;;-147.06;100.00
54453;BME280;40363;52.270;10.546;2023-02-13T02:06:24;78783.75;;;-147.06;100.00
54453;BME280;40363;52.270;10.546;2023-02-13T02:08:54;78779.63;;;-147.06;100.00
54453;BME280;40363;52.270;10.546;2023-02-13T02:11:29;78775.53;;;-147.06;100.00
54453;BME280;40363;52.270;10.546;2023-02-13T02:13:57;78767.28;;;-147.06;100.00
54453;BME280;40363;52.270;10.546;2023-02-13T02:16:25;78763.19;;;-147.06;100.00
54453;BME280;40363;52.270;10.546;2023-02-13T02:18:52;78748.78;;;-147.06;100.00
54453;BME280;40363;52.270;10.546;2023-02-13T02:21:44;78742.63;;;-147.06;100.00
54453;BME280;40363;52.270;10.546;2023-02-13T02:24:29;78750.84;;;-147.06;100.00
54453;BME280;40363;52.270;10.546;2023-02-13T02:30:33;78754.97;;;-147.06;100.00
54453;BME280;40363;52.270;10.546;2023-02-13T02:33:17;78767.28;;;-147.06;100.00
54453;BME280;40363;52.270;10.546;2023-02-13T02:35:54;78775.53;;;-147.06;100.00
54453;BME280;40363;52.270;10.546;2023-02-13T02:38:38;78779.63;;;-147.06;100.00
54453;BME280;40363;52.270;10.546;2023-02-13T02:41:10;78808.44;;;-147.06;100.00
54453;BME280;40363;52.270;10.546;2023-02-13T02:44:06;78794.03;;;-147.06;100.00
54453;BME280;40363;52.270;10.546;2023-02-13T02:46:39;78787.88;;;-147.06;100.00
54453;BME280;40363;52.270;10.546;2023-02-13T02:49:32;78781.69;;;-147.06;100.00
54453;BME280;40363;52.270;10.546;2023-02-13T02:52:25;78791.97;;;-147.06;100.00
54453;BME280;40363;52.270;10.546;2023-02-13T02:54:59;78789.91;;;-147.06;100.00
54453;BME280;40363;52.270;10.546;2023-02-13T02:57:38;78791.97;;;-147.06;100.00
54453;BME280;40363;52.270;10.546;2023-02-13T03:00:25;78775.53;;;-147.06;100.00
54453;BME280;40363;52.270;10.546;2023-02-13T03:03:14;78773.47;;;-147.06;100.00
54453;BME280;40363;52.270;10.546;2023-02-13T03:06:03;78785.81;;;-147.06;100.00
54453;BME280;40363;52.270;10.546;2023-02-13T03:08:39;78781.69;;;-147.06;100.00
54453;BME280;40363;52.270;10.546;2023-02-13T03:11:24;78785.81;;;-147.06;100.00
54453;BME280;40363;52.270;10.546;2023-02-13T03:14:10;78783.75;;;-147.06;100.00
54453;BME280;40363;52.270;10.546;2023-02-13T03:16:39;78787.88;;;-147.06;100.00
54453;BME280;40363;52.270;10.546;2023-02-13T03:19:32;78804.31;;;-147.06;100.00
54453;BME280;40363;52.270;10.546;2023-02-13T03:22:28;78798.16;;;-147.06;100.00
54453;BME280;40363;52.270;10.546;2023-02-13T03:25:07;78787.88;;;-147.06;100.00
54453;BME280;40363;52.270;10.546;2023-02-13T03:27:41;78800.19;;;-147.06;100.00
54453;BME280;40363;52.270;10.546;2023-02-13T03:30:36;78804.31;;;-147.06;100.00
54453;BME280;40363;52.270;10.546;2023-02-13T03:33:16;78855.72;;;-147.06;100.00
54453;BME280;40363;52.270;10.546;2023-02-13T03:35:48;78857.78;;;-147.06;100.00
54453;BME280;40363;52.270;10.546;2023-02-13T03:38:41;78847.50;;;-147.06;100.00
54453;BME280;40363;52.270;10.546;2023-02-13T03:41:14;78849.56;;;-147.06;100.00
54453;BME280;40363;52.270;10.546;2023-02-13T03:43:52;78841.34;;;-147.06;100.00
54453;BME280;40363;52.270;10.546;2023-02-13T03:46:23;78839.28;;;-147.06;100.00
54453;BME280;40363;52.270;10.546;2023-02-13T03:48:52;78843.38;;;-147.06;100.00
54453;BME280;40363;52.270;10.546;2023-02-13T03:51:40;78833.09;;;-147.06;100.00
54453;BME280;40363;52.270;10.546;2023-02-13T03:54:15;78816.66;;;-147.06;100.00
54453;BME280;40363;52.270;10.546;2023-02-13T03:56:46;78808.44;;;-147.06;100.00
54453;BME280;40363;52.270;10.546;2023-02-13T03:59:34;78800.19;;;-147.06;100.00
54453;BME280;40363;52.270;10.546;2023-02-13T04:02:09;78808.44;;;-147.06;100.00
54453;BME280;40363;52.270;10.546;2023-02-13T04:04:44;78816.66;;;-147.06;100.00
54453;BME280;40363;52.270;10.546;2023-02-13T04:07:14;78808.44;;;-147.06;100.00
54453;BME280;40363;52.270;10.546;2023-02-13T04:09:55;78808.44;;;-147.06;100.00
54453;BME280;40363;52.270;10.546;2023-02-13T04:12:30;78812.53;;;-147.06;100.00
54453;BME280;40363;52.270;10.546;2023-02-13T04:15:06;78818.72;;;-147.06;100.00
54453;BME280;40363;52.270;10.546;2023-02-13T04:17:37;78806.38;;;-147.06;100.00
54453;BME280;40363;52.270;10.546;2023-02-13T04:20:06;78808.44;;;-147.06;100.00
54453;BME280;40363;52.270;10.546;2023-02-13T04:22:33;78822.81;;;-147.06;100.00
54453;BME280;40363;52.270;10.546;2023-02-13T04:25:02;78812.53;;;-147.06;100.00
54453;BME280;40363;52.270;10.546;2023-02-13T04:27:28;78814.59;;;-147.06;100.00
54453;BME280;40363;52.270;10.546;2023-02-13T04:29:55;78837.22;;;-147.06;100.00
54453;BME280;40363;52.270;10.546;2023-02-13T04:32:22;78841.34;;;-147.06;100.00
54453;BME280;40363;52.270;10.546;2023-02-13T04:34:48;78845.44;;;-147.06;100.00
54453;BME280;40363;52.270;10.546;2023-02-13T04:37:15;78841.34;;;-147.06;100.00
54453;BME280;40363;52.270;10.546;2023-02-13T04:39:41;78822.81;;;-147.06;100.00
54453;BME280;40363;52.270;10.546;2023-02-13T04:42:09;78820.75;;;-147.06;100.00
54453;BME280;40363;52.270;10.546;2023-02-13T04:44:36;78824.88;;;-147.06;100.00
54453;BME280;40363;52.270;10.546;2023-02-13T04:47:02;78847.50;;;-147.06;100.00
54453;BME280;40363;52.270;10.546;2023-02-13T04:49:29;78849.56;;;-147.06;100.00
54453;BME280;40363;52.270;10.546;2023-02-13T04:51:56;78824.88;;;-147.06;100.00
54453;BME280;40363;52.270;10.546;2023-02-13T04:54:22;78806.38;;;-147.06;100.00
54453;BME280;40363;52.270;10.546;2023-02-13T04:56:49;78818.72;;;-147.06;100.00
54453;BME280;40363;52.270;10.546;2023-02-13T04:59:17;78808.44;;;-147.06;100.00
54453;BME280;40363;52.270;10.546;2023-02-13T05:01:43;78820.75;;;-147.06;100.00
54453;BME280;40363;52.270;10.546;2023-02-13T05:04:10;78822.81;;;-147.06;100.00
54453;BME280;40363;52.270;10.546;2023-02-13T05:06:40;78822.81;;;-147.06;100.00
54453;BME280;40363;52.270;10.546;2023-02-13T05:09:07;78829.00;;;-147.06;100.00
54453;BME280;40363;52.270;10.546;2023-02-13T05:11:33;78818.72;;;-147.06;100.00
54453;BME280;40363;52.270;10.546;2023-02-13T05:14:00;78812.53;;;-147.06;100.00
54453;BME280;40363;52.270;10.546;2023-02-13T05:16:28;78808.44;;;-147.06;100.00
54453;BME280;40363;52.270;10.546;2023-02-13T05:19:16;78806.38;;;-147.06;100.00
54453;BME280;40363;52.270;10.546;2023-02-13T05:21:42;78810.47;;;-147.06;100.00
54453;BME280;40363;52.270;10.546;2023-02-13T05:24:26;78829.00;;;-147.06;100.00
54453;BME280;40363;52.270;10.546;2023-02-13T05:26:53;78820.75;;;-147.06;100.00
54453;BME280;40363;52.270;10.546;2023-02-13T05:29:20;78826.94;;;-147.06;100.00
54453;BME280;40363;52.270;10.546;2023-02-13T05:31:50;78822.81;;;-147.06;100.00
54453;BME280;40363;52.270;10.546;2023-02-13T05:34:20;78833.09;;;-147.06;100.00
54453;BME280;40363;52.270;10.546;2023-02-13T05:36:48;78810.47;;;-147.06;100.00
54453;BME280;40363;52.270;10.546;2023-02-13T05:39:15;78829.00;;;-147.06;100.00
54453;BME280;40363;52.270;10.546;2023-02-13T05:41:42;78837.22;;;-147.06;100.00
54453;BME280;40363;52.270;10.546;2023-02-13T05:44:09;78841.34;;;-147.06;100.00
54453;BME280;40363;52.270;10.546;2023-02-13T05:46:39;78824.88;;;-147.06;100.00
54453;BME280;40363;52.270;10.546;2023-02-13T05:49:09;78810.47;;;-147.06;100.00
54453;BME280;40363;52.270;10.546;2023-02-13T05:51:36;78804.31;;;-147.06;100.00
54453;BME280;40363;52.270;10.546;2023-02-13T05:54:03;78796.09;;;-147.06;100.00
54453;BME280;40363;52.270;10.546;2023-02-13T05:56:30;78789.91;;;-147.06;100.00
54453;BME280;40363;52.270;10.546;2023-02-13T05:58:56;78791.97;;;-147.06;100.00
54453;BME280;40363;52.270;10.546;2023-02-13T06:01:23;78791.97;;;-147.06;100.00
54453;BME280;40363;52.270;10.546;2023-02-13T06:03:53;78773.47;;;-147.06;100.00
54453;BME280;40363;52.270;10.546;2023-02-13T06:06:25;78773.47;;;-147.06;100.00
54453;BME280;40363;52.270;10.546;2023-02-13T06:08:52;78775.53;;;-147.06;100.00
54453;BME280;40363;52.270;10.546;2023-02-13T06:11:19;78783.75;;;-147.06;100.00
54453;BME280;40363;52.270;10.546;2023-02-13T06:13:47;78767.28;;;-147.06;100.00
54453;BME280;40363;52.270;10.546;2023-02-13T06:16:14;78775.53;;;-147.06;100.00
54453;BME280;40363;52.270;10.546;2023-02-13T06:18:40;78759.06;;;-147.06;100.00
54453;BME280;40363;52.270;10.546;2023-02-13T06:21:07;78761.13;;;-147.06;100.00
54453;BME280;40363;52.270;10.546;2023-02-13T06:23:35;78769.34;;;-147.06;100.00
54453;BME280;40363;52.270;10.546;2023-02-13T06:26:03;78767.28;;;-147.06;100.00
54453;BME280;40363;52.270;10.546;2023-02-13T06:28:30;78775.53;;;-147.06;100.00
54453;BME280;40363;52.270;10.546;2023-02-13T06:30:56;78773.47;;;-147.06;100.00
54453;BME280;40363;52.270;10.546;2023-02-13T06:33:23;78767.28;;;-147.06;99.82
54453;BME280;40363;52.270;10.546;2023-02-13T06:35:50;78767.28;;;-147.06;99.57
54453;BME280;40363;52.270;10.546;2023-02-13T06:38:17;78773.47;;;-147.06;99.35
54453;BME280;40363;52.270;10.546;2023-02-13T06:40:45;78771.41;;;-147.06;99.55
54453;BME280;40363;52.270;10.546;2023-02-13T06:43:12;78775.53;;;-147.06;99.33
54453;BME280;40363;52.270;10.546;2023-02-13T06:45:40;78783.75;;;-147.06;98.75
54453;BME280;40363;52.270;10.546;2023-02-13T06:48:07;78783.75;;;-147.06;98.82
54453;BME280;40363;52.270;10.546;2023-02-13T06:50:34;78785.81;;;-147.06;99.10
54453;BME280;40363;52.270;10.546;2023-02-13T06:53:01;78775.53;;;-147.06;98.75
54453;BME280;40363;52.270;10.546;2023-02-13T06:55:27;78777.56;;;-147.06;98.46
54453;BME280;40363;52.270;10.546;2023-02-13T06:57:55;78775.53;;;-147.06;98.39
54453;BME280;40363;52.270;10.546;2023-02-13T07:00:22;78767.28;;;-147.06;97.69
54453;BME280;40363;52.270;10.546;2023-02-13T07:02:49;78767.28;;;-147.06;97.91
54453;BME280;40363;52.270;10.546;2023-02-13T07:05:15;78761.13;;;-147.06;97.68
54453;BME280;40363;52.270;10.546;2023-02-13T07:07:42;78771.41;;;-147.06;97.70
54453;BME280;40363;52.270;10.546;2023-02-13T07:10:11;78761.13;;;-147.06;97.48
54453;BME280;40363;52.270;10.546;2023-02-13T07:12:38;78779.63;;;-147.06;97.70
54453;BME280;40363;52.270;10.546;2023-02-13T07:15:07;78779.63;;;-147.06;97.58
54453;BME280;40363;52.270;10.546;2023-02-13T07:17:34;78781.69;;;-147.06;97.06
54453;BME280;40363;52.270;10.546;2023-02-13T07:20:00;78773.47;;;-147.06;97.27
54453;BME280;40363;52.270;10.546;2023-02-13T07:22:29;78785.81;;;-147.06;97.20
54453;BME280;40363;52.270;10.546;2023-02-13T07:24:56;78779.63;;;-147.06;97.74
54453;BME280;40363;52.270;10.546;2023-02-13T07:27:23;78769.34;;;-147.06;96.94
54453;BME280;40363;52.270;10.546;2023-02-13T07:29:50;78759.06;;;-147.06;96.63
54453;BME280;40363;52.270;10.546;2023-02-13T07:32:17;78754.97;;;-147.06;96.47
54453;BME280;40363;52.270;10.546;2023-02-13T07:34:44;78783.75;;;-147.06;97.28
54453;BME280;40363;52.270;10.546;2023-02-13T07:37:11;78789.91;;;-147.06;97.46
54453;BME280;40363;52.270;10.546;2023-02-13T07:39:37;78798.16;;;-147.06;97.49
54453;BME280;40363;52.270;10.546;2023-02-13T07:42:04;78794.03;;;-147.06;97.58
54453;BME280;40363;52.270;10.546;2023-02-13T07:44:31;78763.19;;;-147.06;96.33
54453;BME280;40363;52.270;10.546;2023-02-13T07:46:58;78783.75;;;-147.06;96.58
54453;BME280;40363;52.270;10.546;2023-02-13T07:49:26;78767.28;;;-147.06;96.28
54453;BME280;40363;52.270;10.546;2023-02-13T07:51:55;78761.13;;;-147.06;96.27
54453;BME280;40363;52.270;10.546;2023-02-13T07:54:21;78759.06;;;-147.06;96.25
54453;BME280;40363;52.270;10.546;2023-02-13T07:56:48;78769.34;;;-147.06;96.17
54453;BME280;40363;52.270;10.546;2023-02-13T07:59:15;78779.63;;;-147.06;97.05
54453;BME280;40363;52.270;10.546;2023-02-13T08:01:41;78787.88;;;-147.06;97.15
54453;BME280;40363;52.270;10.546;2023-02-13T08:04:08;78791.97;;;-147.06;96.95
54453;BME280;40363;52.270;10.546;2023-02-13T08:06:38;78763.19;;;-147.06;96.18
54453;BME280;40363;52.270;10.546;2023-02-13T08:09:05;78750.84;;;-147.06;95.93
54453;BME280;40363;52.270;10.546;2023-02-13T08:11:51;78738.50;;;-147.06;95.79
54453;BME280;40363;52.270;10.546;2023-02-13T08:14:22;78754.97;;;-147.06;95.64
54453;BME280;40363;52.270;10.546;2023-02-13T08:16:49;78742.63;;;-147.06;95.13
54453;BME280;40363;52.270;10.546;2023-02-13T08:19:16;78746.72;;;-147.06;95.03
54453;BME280;40363;52.270;10.546;2023-02-13T08:21:45;78746.72;;;-147.06;95.37
54453;BME280;40363;52.270;10.546;2023-02-13T08:24:11;78759.06;;;-147.06;95.34
54453;BME280;40363;52.270;10.546;2023-02-13T08:26:38;78763.19;;;-147.06;95.29
54453;BME280;40363;52.270;10.546;2023-02-13T08:29:05;78750.84;;;-147.06;95.03
54453;BME280;40363;52.270;10.546;2023-02-13T08:31:32;78744.66;;;-147.06;94.72
54453;BME280;40363;52.270;10.546;2023-02-13T08:33:59;78746.72;;;-147.06;94.77
54453;BME280;40363;52.270;10.546;2023-02-13T08:36:26;78748.78;;;-147.06;94.85
54453;BME280;40363;52.270;10.546;2023-02-13T08:38:54;78769.34;;;-147.06;95.78
54453;BME280;40363;52.270;10.546;2023-02-13T08:41:20;78750.84;;;-147.06;95.37
54453;BME280;40363;52.270;10.546;2023-02-13T08:43:48;78779.63;;;-147.06;96.42
54453;BME280;40363;52.270;10.546;2023-02-13T08:46:14;78789.91;;;-147.06;96.47
54453;BME280;40363;52.270;10.546;2023-02-13T08:48:41;78779.63;;;-147.06;96.68
54453;BME280;40363;52.270;10.546;2023-02-13T08:51:09;78771.41;;;-147.06;96.95
54453;BME280;40363;52.270;10.546;2023-02-13T08:53:37;78765.25;;;-147.06;96.97
54453;BME280;40363;52.270;10.546;2023-02-13T08:56:05;78740.56;;;-147.06;96.69
54453;BME280;40363;52.270;10.546;2023-02-13T08:58:32;78750.84;;;-147.06;96.10
54453;BME280;40363;52.270;10.546;2023-02-13T09:00:59;78754.97;;;-147.06;96.65
54453;BME280;40363;52.270;10.546;2023-02-13T09:03:29;78752.91;;;-147.06;96.67
54453;BME280;40363;52.270;10.546;2023-02-13T09:05:57;78746.72;;;-147.06;96.51
54453;BME280;40363;52.270;10.546;2023-02-13T09:08:24;78754.97;;;-147.06;96.47
54453;BME280;40363;52.270;10.546;2023-02-13T09:10:55;78771.41;;;-147.06;96.54
54453;BME280;40363;52.270;10.546;2023-02-13T09:13:23;78783.75;;;-147.06;96.87
54453;BME280;40363;52.270;10.546;2023-02-13T09:15:49;78791.97;;;-147.06;96.90
54453;BME280;40363;52.270;10.546;2023-02-13T09:18:16;78798.16;;;-147.06;97.02
54453;BME280;40363;52.270;10.546;2023-02-13T09:20:43;78791.97;;;-147.06;97.29
54453;BME280;40363;52.270;10.546;2023-02-13T09:23:09;78785.81;;;-147.06;96.57
54453;BME280;40363;52.270;10.546;2023-02-13T09:25:36;78787.88;;;-147.06;96.30
54453;BME280;40363;52.270;10.546;2023-02-13T09:28:03;78777.56;;;-147.06;96.11
54453;BME280;40363;52.270;10.546;2023-02-13T09:30:31;78769.34;;;-147.06;96.10
54453;BME280;40363;52.270;10.546;2023-02-13T09:32:57;78775.53;;;-147.06;96.00
54453;BME280;40363;52.270;10.546;2023-02-13T09:35:24;78775.53;;;-147.06;96.11
54453;BME280;40363;52.270;10.546;2023-02-13T09:37:51;78771.41;;;-147.06;96.07
54453;BME280;40363;52.270;10.546;2023-02-13T09:40:21;78773.47;;;-147.06;96.20
54453;BME280;40363;52.270;10.546;2023-02-13T09:42:49;78763.19;;;-147.06;95.87
54453;BME280;40363;52.270;10.546;2023-02-13T09:45:19;78763.19;;;-147.06;95.52
54453;BME280;40363;52.270;10.546;2023-02-13T09:47:49;78763.19;;;-147.06;95.14
54453;BME280;40363;52.270;10.546;2023-02-13T09:50:18;78767.28;;;-147.06;94.90
54453;BME280;40363;52.270;10.546;2023-02-13T09:52:49;78773.47;;;-147.06;94.67
54453;BME280;40363;52.270;10.546;2023-02-13T09:55:18;78761.13;;;-147.06;94.12
54453;BME280;40363;52.270;10.546;2023-02-13T09:57:50;78750.84;;;-147.06;93.89
54453;BME280;40363;52.270;10.546;2023-02-13T10:00:20;78742.63;;;-147.06;93.41
54453;BME280;40363;52.270;10.546;2023-02-13T10:03:11;78750.84;;;-147.06;93.71
54453;BME280;40363;52.270;10.546;2023-02-13T10:05:45;78734.38;;;-147.06;93.27
54453;BME280;40363;52.270;10.546;2023-02-13T10:08:23;78732.34;;;-147.06;93.11
54453;BME280;40363;52.270;10.546;2023-02-13T10:11:01;78726.16;;;-147.06;92.88
54453;BME280;40363;52.270;10.546;2023-02-13T10:13:42;78726.16;;;-147.06;92.56
54453;BME280;40363;52.270;10.546;2023-02-13T10:16:14;78726.16;;;-147.06;92.09
54453;BME280;40363;52.270;10.546;2023-02-13T10:18:46;78713.81;;;-147.06;91.40
54453;BME280;40363;52.270;10.546;2023-02-13T10:21:18;78717.94;;;-147.06;90.78
54453;BME280;40363;52.270;10.546;2023-02-13T10:23:50;78717.94;;;-147.06;91.10
54453;BME280;40363;52.270;10.546;2023-02-13T10:26:21;78707.66;;;-147.06;90.62
54453;BME280;40363;52.270;10.546;2023-02-13T10:28:53;78703.53;;;-147.06;90.46
54453;BME280;40363;52.270;10.546;2023-02-13T10:31:41;78689.16;;;-147.06;89.57
54453;BME280;40363;52.270;10.546;2023-02-13T10:34:14;78689.16;;;-147.06;89.70
54453;BME280;40363;52.270;10.546;2023-02-13T10:36:44;78689.16;;;-147.06;89.32
54453;BME280;40363;52.270;10.546;2023-02-13T10:39:21;78687.09;;;-147.06;89.03
54453;BME280;40363;52.270;10.546;2023-02-13T10:41:52;78695.31;;;-147.06;88.53
54453;BME280;40363;52.270;10.546;2023-02-13T10:44:35;78697.38;;;-147.06;88.98
54453;BME280;40363;52.270;10.546;2023-02-13T10:47:15;78687.09;;;-147.06;88.65
54453;BME280;40363;52.270;10.546;2023-02-13T10:49:57;78687.09;;;-147.06;88.58
54453;BME280;40363;52.270;10.546;2023-02-13T10:52:38;78668.59;;;-147.06;88.02
54453;BME280;40363;52.270;10.546;2023-02-13T10:55:23;78682.97;;;-147.06;88.19
54453;BME280;40363;52.270;10.546;2023-02-13T10:58:05;78672.69;;;-147.06;87.67
54453;BME280;40363;52.270;10.546;2023-02-13T11:00:37;78652.13;;;-147.06;87.11
54453;BME280;40363;52.270;10.546;2023-02-13T11:03:15;78676.81;;;-147.06;87.90
54453;BME280;40363;52.270;10.546;2023-02-13T11:05:43;78660.34;;;-147.06;87.54
54453;BME280;40363;52.270;10.546;2023-02-13T11:08:17;78664.47;;;-147.06;87.99
54453;BME280;40363;52.270;10.546;2023-02-13T11:10:44;78670.63;;;-147.06;88.05
54453;BME280;40363;52.270;10.546;2023-02-13T11:13:17;78650.06;;;-147.06;87.85
54453;BME280;40363;52.270;10.546;2023-02-13T11:15:56;78664.47;;;-147.06;87.64
54453;BME280;40363;52.270;10.546;2023-02-13T11:18:25;78643.91;;;-147.06;87.15
54453;BME280;40363;52.270;10.546;2023-02-13T11:21:00;78641.84;;;-147.06;86.72
54453;BME280;40363;52.270;10.546;2023-02-13T11:23:43;78648.00;;;-147.06;86.52
54453;BME280;40363;52.270;10.546;2023-02-13T11:26:13;78643.91;;;-147.06;86.65
54453;BME280;40363;52.270;10.546;2023-02-13T11:28:49;78635.69;;;-147.06;86.06
54453;BME280;40363;52.270;10.546;2023-02-13T11:31:25;78627.44;;;-147.06;85.75
54453;BME280;40363;52.270;10.546;2023-02-13T11:33:52;78643.91;;;-147.06;85.51
54453;BME280;40363;52.270;10.546;2023-02-13T11:36:26;78648.00;;;-147.06;85.32
54453;BME280;40363;52.270;10.546;2023-02-13T11:39:01;78635.69;;;-147.06;84.76
54453;BME280;40363;52.270;10.546;2023-02-13T11:41:29;78623.34;;;-147.06;84.71
54453;BME280;40363;52.270;10.546;2023-02-13T11:43:58;78606.88;;;-147.06;84.61
54453;BME280;40363;52.270;10.546;2023-02-13T11:46:29;78606.88;;;-147.06;83.95
54453;BME280;40363;52.270;10.546;2023-02-13T11:48:58;78606.88;;;-147.06;83.36
54453;BME280;40363;52.270;10.546;2023-02-13T11:51:44;78627.44;;;-147.06;83.74
54453;BME280;40363;52.270;10.546;2023-02-13T11:54:28;78613.06;;;-147.06;83.28
54453;BME280;40363;52.270;10.546;2023-02-13T11:56:57;78621.28;;;-147.06;82.90
54453;BME280;40363;52.270;10.546;2023-02-13T11:59:26;78627.44;;;-147.06;83.30
54453;BME280;40363;52.270;10.546;2023-02-13T12:02:13;78625.41;;;-147.06;83.47
54453;BME280;40363;52.270;10.546;2023-02-13T12:04:39;78615.13;;;-147.06;83.25
54453;BME280;40363;52.270;10.546;2023-02-13T12:07:16;78600.72;;;-147.06;82.65
54453;BME280;40363;52.270;10.546;2023-02-13T12:09:44;78606.88;;;-147.06;83.46
54453;BME280;40363;52.270;10.546;2023-02-13T12:12:17;78584.25;;;-147.06;83.26
54453;BME280;40363;52.270;10.546;2023-02-13T12:14:45;78590.44;;;-147.06;83.38
54453;BME280;40363;52.270;10.546;2023-02-13T12:17:15;78604.84;;;-147.06;83.58
54453;BME280;40363;52.270;10.546;2023-02-13T12:19:44;78594.56;;;-147.06;82.77
54453;BME280;40363;52.270;10.546;2023-02-13T12:22:31;78596.59;;;-147.06;83.00
54453;BME280;40363;52.270;10.546;2023-02-13T12:28:09;78582.22;;;-147.06;82.92
54453;BME280;40363;52.270;10.546;2023-02-13T12:31:06;78582.22;;;-147.06;82.37
54453;BME280;40363;52.270;10.546;2023-02-13T12:33:54;78561.66;;;-147.06;82.02
54453;BME280;40363;52.270;10.546;2023-02-13T12:36:31;78541.09;;;-147.06;81.39
54453;BME280;40363;52.270;10.546;2023-02-13T12:39:14;78549.31;;;-147.06;81.74
54453;BME280;40363;52.270;10.546;2023-02-13T12:41:49;78541.09;;;-147.06;81.30
54453;BME280;40363;52.270;10.546;2023-02-13T12:44:41;78549.31;;;-147.06;81.58
54453;BME280;40363;52.270;10.546;2023-02-13T12:47:15;78555.47;;;-147.06;81.29
54453;BME280;40363;52.270;10.546;2023-02-13T12:50:04;78534.91;;;-147.06;80.78
54453;BME280;40363;52.270;10.546;2023-02-13T12:52:42;78543.13;;;-147.06;80.94